Aérodrome :
LOGIN :

S'inscrire | Disclaimer

   EN    FR    IT 

 










Légende :    VFR   VFR Marginal   IFR   IFR Intensif   IFR Très Intensif
Visi : 
Plafond : 
>= 8 km
>= 3000ft
5 à 8 km
1000 à 3000 ft
1500m à 5 km
500 à 1000 ft
800 à 1500m
200 à 500 ft
< 800m
< 200 ft
Symboles :   Orages  Brouillard  Fortes neiges  Fortes précipitations  Vent > 20 kt
SIGMETs :   Divers  Orages  Givrage  Turbulence  Onde Orograph.  Cendres Volcan.






- Altitude de l'aérodrome : 21 ft
- Code IATA : BJV


LTFE - Bodrum

DERNIER METAR :
  • 151850Z 14005KT CAVOK 11/09 Q1022 NOSIG RMK RWY10 /////KT

METARs EXPIRÉS :
  • 151820Z 13004KT CAVOK 11/09 Q1022 NOSIG RMK RWY10 /////KT
  • 151750Z 13003KT CAVOK 11/10 Q1022 NOSIG RMK RWY10 /////KT
  • 151720Z 12006KT CAVOK 12/10 Q1021 NOSIG RMK RWY10 /////KT
  • 151650Z 15004KT CAVOK 12/10 Q1021 NOSIG RMK RWY10 /////KT
  • 151620Z 13003KT CAVOK 13/11 Q1021 NOSIG RMK RWY10 /////KT

TAF TAF LTFE
Valide du 15 à 18h jusqu'au 16 à 18h UTC


151640Z 1518/1618 VRB02KT CAVOK
PROB40 1602/1606 4000 BR
TEMPO 1609/1613 26012KT FEW035



MET'MAP, la Météo Aéronautique d'un coup d'oeil ! - Copyright ORBIFLY Décembre 2007 - Disclaimer

ORBIFLY MET'MAP TEAM :

Programmation & Développement : Alexandra Zaïnal
Sur une idée originale de : Baudouin d'Aumeries
Assistance à la programmation : Marc-Olivier Méhu
Soutien technique & logistique : Manuel Goepfert

Contact : metmap@orbifly.com




SOURCES & CREDITS :

   NOAA